Schedule Details


Flight Number: CTN632
Departure: Franjo Tudman (LDZA) at 21:15
Arrival: Zemunik (LDZD) at 22:00
Route: KOTOR M986 KULEN L868 ALANU

Weather Information
LDZA 220430Z 25004KT CAVOK 04/02 Q1015 TEMPO 23008KT
LDZD 220430Z 09004KT 040V140 CAVOK 10/08 Q1017 NOSIG
Schedule Frequency

Route Map